Time;durP1;ratioP1;P1;durP2;ratioP2;P2;SDS_P1;SDS_P2;PMS_P1;PMS_P2;Temp;Humidity;BMP_temperature;BMP_pressure;BME280_temperature;BME280_humidity;BME280_pressure;Samples;Min_cycle;Max_cycle;Signal;HPM_P1;HPM_P2
2022/05/19 00:01:06;;;;;;;4.03;0.93;;;230.80;2252.80;;;;;;5009646;28;20068;-57
2022/05/19 00:03:37;;;;;;;1.95;0.82;;;230.70;2252.80;;;;;;5009920;28;20026;-58
2022/05/19 00:06:05;;;;;;;1.42;0.98;;;230.70;2252.80;;;;;;5009585;28;20030;-58
2022/05/19 00:08:31;;;;;;;1.70;1.00;;;230.70;2252.80;;;;;;5009692;28;20104;-58
2022/05/19 00:11:00;;;;;;;1.98;1.13;;;230.60;2252.80;;;;;;5009684;28;20476;-58
2022/05/19 00:13:27;;;;;;;5.05;1.08;;;230.40;2252.80;;;;;;5012491;28;20033;-58
2022/05/19 00:15:53;;;;;;;0.68;0.65;;;230.40;2252.80;;;;;;5013386;28;20469;-58
2022/05/19 00:18:19;;;;;;;3.22;1.20;;;230.50;2252.80;;;;;;5013269;28;20022;-58
2022/05/19 00:20:46;;;;;;;2.58;1.00;;;230.50;2252.80;;;;;;5013371;28;20052;-58
2022/05/19 00:23:12;;;;;;;2.60;0.80;;;230.40;2252.80;;;;;;5013084;28;20084;-58
2022/05/19 00:25:38;;;;;;;1.67;0.63;;;230.40;2252.80;;;;;;5013194;28;20809;-57
2022/05/19 00:28:05;;;;;;;1.48;0.75;;;230.40;2252.80;;;;;;5012807;28;20021;-58
2022/05/19 00:30:33;;;;;;;2.42;0.95;;;230.50;2252.80;;;;;;5012763;28;20037;-58
2022/05/19 00:32:58;;;;;;;3.97;1.25;;;230.50;2252.80;;;;;;5013015;28;20026;-58
2022/05/19 00:35:24;;;;;;;3.05;1.67;;;230.50;2252.80;;;;;;5013106;28;20083;-58
2022/05/19 00:37:50;;;;;;;1.67;0.88;;;230.60;2252.80;;;;;;5012818;28;20026;-58
2022/05/19 00:40:18;;;;;;;2.00;0.77;;;230.40;2252.80;;;;;;5012885;28;20495;-58
2022/05/19 00:42:44;;;;;;;2.20;1.13;;;230.40;2252.80;;;;;;5012743;28;20034;-58
2022/05/19 00:45:10;;;;;;;2.78;1.33;;;230.40;2252.80;;;;;;5012468;28;20033;-58
2022/05/19 00:47:41;;;;;;;2.70;1.00;;;230.50;2252.80;;;;;;5012734;28;20025;-58
2022/05/19 00:50:14;;;;;;;1.73;0.88;;;205.70;2252.80;;;;;;5012733;28;20076;-58
2022/05/19 00:52:44;;;;;;;1.33;0.68;;;205.70;2252.80;;;;;;5012563;28;20473;-57
2022/05/19 00:55:17;;;;;;;1.92;1.02;;;205.70;2252.80;;;;;;5012402;28;20124;-58
2022/05/19 00:57:52;;;;;;;2.53;1.38;;;205.70;2252.80;;;;;;5012379;28;20049;-58
2022/05/19 01:00:20;;;;;;;1.17;0.77;;;205.70;2252.80;;;;;;5012672;28;20395;-59
2022/05/19 01:02:58;;;;;;;1.75;0.98;;;205.60;2252.80;;;;;;5012582;28;20026;-57
2022/05/19 01:05:48;;;;;;;0.93;0.68;;;205.60;2252.80;;;;;;5012525;28;20034;-58
2022/05/19 01:08:23;;;;;;;1.15;0.40;;;205.50;2252.80;;;;;;5012503;28;20534;-57
2022/05/19 01:10:50;;;;;;;64.03;34.53;;;205.30;2252.80;;;;;;5012171;28;20490;-59
2022/05/19 01:13:16;;;;;;;13.13;7.30;;;205.50;2252.80;;;;;;5012323;28;20037;-59
2022/05/19 01:15:47;;;;;;;5.47;3.15;;;205.60;2252.80;;;;;;5012186;28;20025;-57
2022/05/19 01:18:14;;;;;;;3.40;1.70;;;205.70;2252.80;;;;;;5012197;28;20392;-58
2022/05/19 01:20:40;;;;;;;1.45;1.00;;;205.60;2252.80;;;;;;5011863;28;20030;-57
2022/05/19 01:23:27;;;;;;;1.83;1.60;;;205.60;2252.80;;;;;;5012154;28;20440;-59
2022/05/19 01:26:11;;;;;;;2.05;1.20;;;205.60;2252.80;;;;;;5011509;28;20061;-58
2022/05/19 01:28:36;;;;;;;;;;;205.50;2252.80;;;;;;5012422;28;20029;-57
2022/05/19 01:31:02;;;;;;;2.65;1.30;;;205.60;2252.80;;;;;;5011613;28;19913;-58
2022/05/19 01:33:28;;;;;;;5.63;1.33;;;205.50;2252.80;;;;;;5012010;28;20029;-57
2022/05/19 01:35:54;;;;;;;1.98;0.88;;;205.50;2252.80;;;;;;5011784;28;20021;-58
2022/05/19 01:38:29;;;;;;;1.65;1.00;;;205.50;2252.80;;;;;;5011676;28;20083;-58
2022/05/19 01:41:12;;;;;;;4.03;1.52;;;205.50;2252.80;;;;;;5011643;28;20030;-58
2022/05/19 01:43:48;;;;;;;2.83;1.42;;;205.50;2252.80;;;;;;5011648;28;20511;-59
2022/05/19 01:46:26;;;;;;;2.80;1.42;;;205.50;2252.80;;;;;;5012039;28;20384;-58
2022/05/19 01:49:24;;;;;;;3.85;1.80;;;205.50;2252.80;;;;;;5011520;28;20037;-58
2022/05/19 01:52:01;;;;;;;2.33;1.20;;;205.50;2252.80;;;;;;4912859;29;20040;-58
2022/05/19 01:54:53;;;;;;;3.38;1.30;;;205.40;2252.80;;;;;;4912786;29;20047;-58
2022/05/19 01:57:42;;;;;;;2.45;1.00;;;205.30;2252.80;;;;;;4912710;29;20086;-58
2022/05/19 02:00:19;;;;;;;2.28;1.25;;;205.40;2252.80;;;;;;4912806;29;20028;-58
2022/05/19 02:03:16;;;;;;;3.15;1.15;;;205.40;2252.80;;;;;;4912833;29;20087;-58
2022/05/19 02:06:03;;;;;;;0.95;0.80;;;205.30;2252.80;;;;;;4891295;29;20039;-59
2022/05/19 02:08:50;;;;;;;1.45;0.90;;;205.30;2252.80;;;;;;4912554;29;20211;-58
2022/05/19 02:11:31;;;;;;;3.25;1.00;;;205.30;2252.80;;;;;;4912813;29;20119;-58
2022/05/19 02:14:02;;;;;;;1.30;0.82;;;205.30;2252.80;;;;;;4912599;29;20169;-58
2022/05/19 02:16:30;;;;;;;1.27;0.80;;;205.20;2252.80;;;;;;4912615;29;20036;-58
2022/05/19 02:18:58;;;;;;;1.17;1.00;;;205.20;2252.80;;;;;;4912581;29;20471;-57
2022/05/19 02:21:24;;;;;;;2.22;0.73;;;205.20;2252.80;;;;;;4912480;29;20032;-58
2022/05/19 02:23:50;;;;;;;2.05;0.93;;;205.10;2252.80;;;;;;4912144;29;20040;-59
2022/05/19 02:26:16;;;;;;;2.35;1.10;;;205.00;2252.80;;;;;;4896139;28;20419;-59
2022/05/19 02:28:55;;;;;;;0.73;0.60;;;205.00;2252.80;;;;;;4991036;28;20057;-59
2022/05/19 02:31:21;;;;;;;0.80;0.68;;;205.00;2252.80;;;;;;4991006;28;20034;-59
2022/05/19 02:33:46;;;;;;;0.75;0.65;;;204.80;2252.80;;;;;;4991126;28;20481;-58
2022/05/19 02:36:12;;;;;;;2.03;0.80;;;205.00;2252.80;;;;;;4990033;28;20041;-58
2022/05/19 02:38:38;;;;;;;1.33;0.93;;;205.00;2252.80;;;;;;4991110;28;20023;-59
2022/05/19 02:41:05;;;;;;;0.77;0.65;;;205.00;2252.80;;;;;;4991330;28;20026;-58
2022/05/19 02:43:30;;;;;;;1.73;1.05;;;205.00;2252.80;;;;;;4990692;28;20030;-59
2022/05/19 02:45:56;;;;;;;0.93;0.90;;;205.00;2252.80;;;;;;4991052;28;20030;-57
2022/05/19 02:48:23;;;;;;;2.88;0.88;;;205.00;2252.80;;;;;;4990906;28;20025;-58
2022/05/19 02:50:50;;;;;;;1.25;0.82;;;205.00;2252.80;;;;;;4990626;28;20042;-59
2022/05/19 02:53:18;;;;;;;1.25;1.15;;;205.00;2252.80;;;;;;4990959;28;20031;-58
2022/05/19 02:55:44;;;;;;;1.40;0.75;;;204.90;2252.80;;;;;;4991070;28;20030;-58
2022/05/19 02:58:12;;;;;;;1.17;0.55;;;204.90;2252.80;;;;;;4990746;28;20484;-59
2022/05/19 03:00:40;;;;;;;2.20;1.17;;;204.80;2252.80;;;;;;4990930;28;20037;-58
2022/05/19 03:03:06;;;;;;;1.55;0.95;;;204.80;2252.80;;;;;;4990884;28;20097;-58
2022/05/19 03:05:33;;;;;;;4.20;1.10;;;204.80;2252.80;;;;;;4990404;28;20157;-58
2022/05/19 03:07:59;;;;;;;2.08;0.80;;;204.80;2252.80;;;;;;4990579;28;20559;-59
2022/05/19 03:10:26;;;;;;;1.05;0.85;;;204.80;2252.80;;;;;;4990733;28;20042;-58
2022/05/19 03:12:55;;;;;;;1.67;0.90;;;204.80;2252.80;;;;;;4990441;28;20031;-58
2022/05/19 03:15:21;;;;;;;4.32;0.77;;;205.00;2252.80;;;;;;4990385;28;20038;-58
2022/05/19 03:17:47;;;;;;;1.55;0.98;;;205.00;2252.80;;;;;;4990804;28;20023;-59
2022/05/19 03:20:14;;;;;;;2.25;1.15;;;205.00;2252.80;;;;;;4990514;28;20034;-59
2022/05/19 03:22:39;;;;;;;2.90;0.90;;;205.10;2252.80;;;;;;4990412;28;20089;-59
2022/05/19 03:25:07;;;;;;;1.73;1.02;;;205.10;2252.80;;;;;;4999994;28;20062;-59
2022/05/19 03:27:34;;;;;;;2.03;0.90;;;205.10;2252.80;;;;;;5009946;28;20034;-59
2022/05/19 03:30:00;;;;;;;2.47;0.90;;;205.00;2252.80;;;;;;5009756;28;20034;-59
2022/05/19 03:32:25;;;;;;;1.25;0.80;;;205.20;2252.80;;;;;;5010162;28;20026;-57
2022/05/19 03:34:51;;;;;;;2.30;1.02;;;205.20;2252.80;;;;;;5009881;28;20443;-59
2022/05/19 03:37:17;;;;;;;0.98;0.60;;;205.30;2252.80;;;;;;5010092;28;20034;-58
2022/05/19 03:39:43;;;;;;;1.48;0.88;;;205.30;2252.80;;;;;;5009928;28;20075;-59
2022/05/19 03:42:09;;;;;;;1.35;1.00;;;205.20;2252.80;;;;;;5009927;28;20121;-59
2022/05/19 03:44:35;;;;;;;1.27;0.77;;;205.30;2252.80;;;;;;5010080;28;20030;-58
2022/05/19 03:47:03;;;;;;;1.63;0.80;;;205.30;2252.80;;;;;;5010254;28;20037;-58
2022/05/19 03:49:28;;;;;;;0.38;0.28;;;205.40;2252.80;;;;;;5013562;28;20026;-59
2022/05/19 03:51:54;;;;;;;1.83;0.60;;;205.50;2252.80;;;;;;5013808;28;20076;-58
2022/05/19 03:54:20;;;;;;;0.88;0.70;;;205.70;2252.80;;;;;;5013531;28;20189;-59
2022/05/19 03:56:46;;;;;;;2.00;0.93;;;205.70;2252.80;;;;;;5013943;28;20022;-58
2022/05/19 03:59:12;;;;;;;1.38;0.80;;;230.40;2252.80;;;;;;5013310;28;20041;-58
2022/05/19 04:01:39;;;;;;;1.83;0.70;;;230.40;2252.80;;;;;;5013622;28;20018;-58
2022/05/19 04:04:06;;;;;;;3.38;1.50;;;230.50;2252.80;;;;;;5013469;28;20029;-58
2022/05/19 04:06:34;;;;;;;1.08;0.80;;;230.60;2252.80;;;;;;5013192;28;20026;-58
2022/05/19 04:09:00;;;;;;;1.48;1.02;;;230.60;2252.80;;;;;;5013194;28;20440;-58
2022/05/19 04:11:26;;;;;;;2.95;0.90;;;230.70;2252.80;;;;;;5013336;28;20544;-58
2022/05/19 04:13:53;;;;;;;1.73;0.73;;;230.80;2252.80;;;;;;5013168;28;20033;-59
2022/05/19 04:16:18;;;;;;;1.20;0.90;;;230.90;2252.80;;;;;;5013158;28;20026;-59
2022/05/19 04:18:44;;;;;;;2.30;0.93;;;230.90;2252.80;;;;;;5013479;28;20025;-58
2022/05/19 04:21:10;;;;;;;1.25;0.90;;;231.00;2252.80;;;;;;5012961;28;20040;-58
2022/05/19 04:23:36;;;;;;;0.82;0.63;;;230.90;2252.80;;;;;;5013180;28;20029;-58
2022/05/19 04:26:03;;;;;;;0.93;0.68;;;231.00;2252.80;;;;;;5012726;28;20085;-58
2022/05/19 04:28:28;;;;;;;1.90;0.70;;;231.10;2252.80;;;;;;5013000;28;20033;-60
2022/05/19 04:30:55;;;;;;;1.00;0.63;;;231.10;2252.80;;;;;;5013028;28;20530;-58
2022/05/19 04:33:21;;;;;;;1.48;0.93;;;231.20;2252.80;;;;;;5012605;28;20036;-59
2022/05/19 04:35:47;;;;;;;1.55;0.68;;;231.30;2252.80;;;;;;5012988;28;20030;-60
2022/05/19 04:38:15;;;;;;;1.63;1.00;;;256.00;2252.80;;;;;;5012817;28;20033;-57
2022/05/19 04:40:43;;;;;;;0.80;0.68;;;256.30;2252.80;;;;;;5012709;28;20022;-58
2022/05/19 04:43:10;;;;;;;1.77;1.20;;;281.60;2278.40;;;;;;5012753;28;20030;-59
2022/05/19 04:45:36;;;;;;;1.90;1.77;;;410.30;1945.60;;;;;;5012602;28;20774;-58
2022/05/19 04:48:02;;;;;;;1.48;1.10;;;512.90;1510.40;;;;;;5012672;28;20439;-58
2022/05/19 04:50:28;;;;;;;2.42;1.60;;;614.70;1280.00;;;;;;5012651;28;20067;-58
2022/05/19 04:52:58;;;;;;;3.28;1.60;;;665.70;1177.60;;;;;;5030330;28;20468;-59
2022/05/19 04:55:25;;;;;;;2.30;1.50;;;691.30;1100.80;;;;;;5018729;28;20113;-59
2022/05/19 04:57:50;;;;;;;2.75;1.80;;;692.10;1049.60;;;;;;5029085;28;20034;-59
2022/05/19 05:00:16;;;;;;;2.42;2.17;;;742.60;1049.60;;;;;;5031142;28;20032;-58
2022/05/19 05:02:42;;;;;;;4.80;1.88;;;768.30;998.40;;;;;;5029834;28;20555;-60
2022/05/19 05:05:09;;;;;;;4.55;2.85;;;794.30;972.80;;;;;;5014951;28;20050;-59
2022/05/19 05:07:35;;;;;;;2.92;2.20;;;820.10;896.00;;;;;;5012202;28;20443;-59
2022/05/19 05:10:01;;;;;;;2.53;2.30;;;845.40;896.00;;;;;;5022447;28;20048;-61
2022/05/19 05:12:27;;;;;;;2.75;2.30;;;870.40;870.40;;;;;;5022066;28;20018;-59
2022/05/19 05:14:53;;;;;;;2.55;2.35;;;845.20;870.40;;;;;;5021292;28;20030;-59
2022/05/19 05:17:19;;;;;;;2.42;2.20;;;870.40;870.40;;;;;;5020577;28;20099;-60
2022/05/19 05:19:45;;;;;;;2.70;2.50;;;871.00;844.80;;;;;;5022605;28;20021;-63
2022/05/19 05:22:10;;;;;;;2.67;2.40;;;870.90;844.80;;;;;;5021019;28;20022;-63
2022/05/19 05:24:36;;;;;;;2.97;2.67;;;870.90;844.80;;;;;;5020773;28;20107;-62
2022/05/19 05:27:05;;;;;;;3.28;2.70;;;871.30;844.80;;;;;;5022245;28;20116;-63
2022/05/19 05:29:32;;;;;;;2.70;2.50;;;871.20;844.80;;;;;;5020953;28;20113;-63
2022/05/19 05:31:58;;;;;;;2.90;2.55;;;870.50;870.40;;;;;;5020524;28;20028;-63
2022/05/19 05:34:24;;;;;;;3.35;3.05;;;870.70;870.40;;;;;;5022146;28;20017;-63
2022/05/19 05:36:50;;;;;;;2.85;2.53;;;871.10;844.80;;;;;;5020304;28;20408;-64
2022/05/19 05:39:16;;;;;;;3.58;2.78;;;896.20;844.80;;;;;;5020708;28;20026;-63
2022/05/19 05:41:42;;;;;;;4.18;3.70;;;922.10;819.20;;;;;;5022063;28;20021;-64
2022/05/19 05:44:08;;;;;;;3.88;3.47;;;922.20;819.20;;;;;;5020256;28;20026;-63
2022/05/19 05:46:34;;;;;;;4.97;4.57;;;922.30;819.20;;;;;;5019778;28;20113;-63
2022/05/19 05:49:00;;;;;;;4.80;4.40;;;948.10;768.00;;;;;;5021576;28;20022;-63
2022/05/19 05:51:25;;;;;;;4.38;4.00;;;998.50;793.60;;;;;;5002483;28;20038;-63
2022/05/19 05:53:51;;;;;;;5.05;4.65;;;973.00;793.60;;;;;;5021509;28;20021;-63
2022/05/19 05:56:20;;;;;;;4.70;4.38;;;998.80;768.00;;;;;;5024907;28;20030;-64
2022/05/19 05:58:46;;;;;;;4.60;4.20;;;998.90;768.00;;;;;;5018976;28;20026;-64
2022/05/19 06:01:14;;;;;;;5.32;4.93;;;998.70;793.60;;;;;;5019918;28;20067;-63
2022/05/19 06:03:41;;;;;;;4.78;4.38;;;973.70;768.00;;;;;;5020239;28;20017;-63
2022/05/19 06:06:07;;;;;;;5.55;5.05;;;973.70;768.00;;;;;;5021885;28;20806;-63
2022/05/19 06:08:33;;;;;;;5.18;4.70;;;998.70;793.60;;;;;;5018744;28;20476;-63
2022/05/19 06:10:59;;;;;;;5.40;5.00;;;1024.30;742.40;;;;;;5018601;28;21055;-64
2022/05/19 06:13:25;;;;;;;6.15;5.72;;;1049.60;768.00;;;;;;5011171;28;20049;-64
2022/05/19 06:15:52;;;;;;;5.97;5.53;;;1024.70;742.40;;;;;;5010825;28;20022;-65
2022/05/19 06:18:18;;;;;;;5.03;4.63;;;1050.20;742.40;;;;;;5011292;28;20026;-64
2022/05/19 06:20:44;;;;;;;6.43;5.93;;;1050.20;742.40;;;;;;5011244;28;20080;-64
2022/05/19 06:23:11;;;;;;;6.65;6.15;;;1075.80;691.20;;;;;;5010732;28;20089;-65
2022/05/19 06:25:37;;;;;;;6.07;5.45;;;1075.70;691.20;;;;;;5010864;28;20491;-65
2022/05/19 06:28:03;;;;;;;5.80;5.40;;;1075.80;716.80;;;;;;5013040;28;20033;-65
2022/05/19 06:30:30;;;;;;;6.90;6.38;;;1075.60;691.20;;;;;;5022408;28;20045;-66
2022/05/19 06:32:56;;;;;;;6.25;5.75;;;1076.10;691.20;;;;;;5020239;28;20041;-65
2022/05/19 06:35:25;;;;;;;6.28;5.78;;;1127.30;665.60;;;;;;5020652;28;20059;-65
2022/05/19 06:37:51;;;;;;;6.57;6.18;;;1127.10;691.20;;;;;;5016730;28;20060;-65
2022/05/19 06:40:18;;;;;;;5.97;5.57;;;1126.40;691.20;;;;;;5020287;28;20025;-66
2022/05/19 06:42:44;;;;;;;6.70;6.30;;;1127.30;665.60;;;;;;5020641;28;20101;-66
2022/05/19 06:45:12;;;;;;;6.90;6.47;;;1177.80;614.40;;;;;;5015517;28;20022;-65
2022/05/19 06:47:38;;;;;;;6.80;6.40;;;1178.00;614.40;;;;;;5018290;28;20112;-64
2022/05/19 06:50:08;;;;;;;7.20;6.80;;;1178.20;588.80;;;;;;5022855;28;20113;-65
2022/05/19 06:52:51;;;;;;;6.50;6.10;;;1203.60;588.80;;;;;;5030284;28;20032;-65
2022/05/19 06:55:19;;;;;;;6.72;6.22;;;1126.90;614.40;;;;;;5030463;28;20044;-66
2022/05/19 06:57:45;;;;;;;6.53;6.13;;;1101.60;614.40;;;;;;5030305;28;20080;-65
2022/05/19 07:00:16;;;;;;;6.88;6.47;;;1126.80;588.80;;;;;;5029861;28;20026;-66
2022/05/19 07:02:48;;;;;;;6.60;6.20;;;1101.40;588.80;;;;;;5030094;28;20041;-66
2022/05/19 07:05:16;;;;;;;;;;;1126.40;588.80;;;;;;5024778;28;20399;-64
2022/05/19 07:07:42;;;;;;;6.43;6.03;;;1152.70;537.60;;;;;;5016310;28;19910;-66
2022/05/19 07:10:09;;;;;;;8.18;7.68;;;1177.60;537.60;;;;;;5001422;28;20883;-65
2022/05/19 07:12:38;;;;;;;7.25;6.65;;;1177.60;537.60;;;;;;5020538;28;20388;-66
2022/05/19 07:15:04;;;;;;;7.05;6.57;;;1203.30;512.00;;;;;;5016533;28;20480;-64
2022/05/19 07:17:30;;;;;;;7.72;7.30;;;1178.30;512.00;;;;;;5019199;28;20479;-63
2022/05/19 07:23:00;;;;;;;7.68;7.28;;;1203.20;512.00;;;;;;4942720;29;20030;-65
2022/05/19 07:25:26;;;;;;;7.45;7.05;;;1203.70;512.00;;;;;;4943633;29;20466;-66
2022/05/19 07:27:52;;;;;;;7.93;7.53;;;1178.20;512.00;;;;;;4943250;29;20043;-63
2022/05/19 07:30:19;;;;;;;7.13;6.63;;;1152.40;537.60;;;;;;4944619;29;20490;-66
2022/05/19 07:32:45;;;;;;;8.05;7.57;;;1152.50;537.60;;;;;;4941148;29;20055;-65
2022/05/19 07:35:13;;;;;;;6.88;6.38;;;1152.50;537.60;;;;;;4943199;29;20118;-65
2022/05/19 07:37:39;;;;;;;7.65;7.05;;;1127.10;563.20;;;;;;4944654;29;20462;-65
2022/05/19 07:40:06;;;;;;;7.18;6.68;;;1178.00;512.00;;;;;;4943155;29;20526;-64
2022/05/19 07:42:32;;;;;;;7.72;7.32;;;1203.30;512.00;;;;;;4943242;29;20027;-65
2022/05/19 07:44:58;;;;;;;7.75;7.35;;;1178.10;537.60;;;;;;4944719;29;20050;-65
2022/05/19 07:47:24;;;;;;;7.15;6.75;;;1178.10;537.60;;;;;;4942776;29;20070;-65
2022/05/19 07:49:54;;;;;;;7.82;7.32;;;1152.60;563.20;;;;;;4943072;29;20106;-65
2022/05/19 07:52:20;;;;;;;8.15;7.47;;;1177.80;512.00;;;;;;4944024;29;20067;-65
2022/05/19 07:54:46;;;;;;;7.40;6.78;;;1152.70;537.60;;;;;;5014960;28;20038;-65
2022/05/19 07:57:12;;;;;;;6.93;6.53;;;1178.20;512.00;;;;;;5013504;28;20048;-67
2022/05/19 07:59:38;;;;;;;7.13;6.65;;;1203.30;563.20;;;;;;5013405;28;20026;-66
2022/05/19 08:02:05;;;;;;;6.95;6.55;;;1126.50;563.20;;;;;;5013638;28;20109;-65
2022/05/19 08:04:31;;;;;;;7.40;7.00;;;1126.90;563.20;;;;;;5013548;28;20028;-65
2022/05/19 08:06:57;;;;;;;6.78;6.38;;;1126.90;563.20;;;;;;5013986;28;20030;-65
2022/05/19 08:12:13;;;;;;;6.82;6.35;;;1076.10;512.00;;;;;;5013720;28;20165;-65
2022/05/19 08:17:23;;;;;;;6.13;5.72;;;1075.80;563.20;;;;;;5013199;28;20029;-63
2022/05/19 08:19:49;;;;;;;5.13;4.72;;;998.60;640.00;;;;;;5012862;28;20026;-63
2022/05/19 08:22:15;;;;;;;5.75;3.30;;;922.40;640.00;;;;;;5013343;28;20030;-64
2022/05/19 08:24:46;;;;;;;3.30;2.17;;;845.70;716.80;;;;;;5012852;28;20100;-63
2022/05/19 08:27:12;;;;;;;3.88;2.95;;;819.30;768.00;;;;;;5012914;28;20037;-64
2022/05/19 08:29:40;;;;;;;2.75;2.25;;;793.70;793.60;;;;;;5013207;28;20030;-64
2022/05/19 08:32:06;;;;;;;4.10;2.15;;;768.80;793.60;;;;;;5012866;28;20041;-63
2022/05/19 08:34:32;;;;;;;2.53;2.10;;;742.50;844.80;;;;;;5012824;28;20030;-63
2022/05/19 08:36:58;;;;;;;2.67;2.38;;;717.10;844.80;;;;;;5012812;28;20456;-62
2022/05/19 08:39:25;;;;;;;2.08;1.75;;;691.70;870.40;;;;;;5012798;28;20152;-63
2022/05/19 08:41:58;;;;;;;9.00;2.25;;;692.10;870.40;;;;;;5012640;28;20155;-63
2022/05/19 08:44:29;;;;;;;2.67;2.00;;;691.30;921.60;;;;;;5012786;28;20083;-63
2022/05/19 08:46:57;;;;;;;4.40;1.75;;;666.10;921.60;;;;;;4994781;28;20026;-63
2022/05/19 08:49:26;;;;;;;2.88;1.90;;;666.50;896.00;;;;;;5012567;28;20499;-64
2022/05/19 08:52:10;;;;;;;3.00;1.80;;;691.20;921.60;;;;;;5012429;28;20496;-62
2022/05/19 08:54:38;;;;;;;3.53;1.67;;;666.50;921.60;;;;;;5012501;28;20022;-63
2022/05/19 08:57:25;;;;;;;2.20;1.80;;;665.80;947.20;;;;;;5012573;28;20038;-63
2022/05/19 08:59:54;;;;;;;3.20;1.90;;;665.80;947.20;;;;;;5012128;28;20033;-62
2022/05/19 09:02:50;;;;;;;2.17;1.70;;;665.90;972.80;;;;;;5012338;28;20101;-64
2022/05/19 09:05:49;;;;;;;3.72;1.80;;;666.30;972.80;;;;;;4997605;28;20049;-65
2022/05/19 09:08:15;;;;;;;3.75;2.13;;;666.20;972.80;;;;;;4913837;29;20137;-63
2022/05/19 09:10:59;;;;;;;3.65;2.50;;;666.40;972.80;;;;;;4913533;29;20035;-64
2022/05/19 09:13:57;;;;;;;1.83;1.52;;;666.00;998.40;;;;;;4913706;29;20115;-63
2022/05/19 09:16:36;;;;;;;2.28;1.55;;;640.90;972.80;;;;;;4913469;29;20028;-64
2022/05/19 09:19:06;;;;;;;3.22;1.83;;;640.70;998.40;;;;;;4915287;29;20067;-65
2022/05/19 09:21:33;;;;;;;3.28;1.63;;;640.80;998.40;;;;;;4921593;29;20032;-63
2022/05/19 09:23:59;;;;;;;2.05;1.60;;;640.90;1049.60;;;;;;4904641;29;20071;-64
2022/05/19 09:26:46;;;;;;;4.45;1.88;;;665.70;1024.00;;;;;;4920885;29;20032;-63
2022/05/19 09:29:15;;;;;;;2.22;1.50;;;640.40;998.40;;;;;;4921687;29;20032;-64
2022/05/19 09:32:02;;;;;;;2.85;1.77;;;640.20;1024.00;;;;;;4920117;29;20100;-63
2022/05/19 09:34:29;;;;;;;4.47;2.13;;;640.20;1024.00;;;;;;4919321;29;20511;-62
2022/05/19 09:37:08;;;;;;;3.28;1.67;;;615.30;1049.60;;;;;;4920643;29;20115;-64
2022/05/19 09:39:44;;;;;;;3.45;1.70;;;614.80;1049.60;;;;;;4921919;29;20032;-63
2022/05/19 09:42:14;;;;;;;4.25;1.73;;;615.30;1049.60;;;;;;4903723;29;20028;-63
2022/05/19 09:44:50;;;;;;;7.32;1.77;;;640.00;1177.60;;;;;;4986506;28;20370;-64
2022/05/19 09:47:25;;;;;;;1.77;1.30;;;640.40;1177.60;;;;;;4999650;28;20038;-64
2022/05/19 09:50:01;;;;;;;2.20;1.55;;;615.30;1024.00;;;;;;4998632;28;20018;-64
2022/05/19 09:52:29;;;;;;;2.60;1.52;;;640.10;1075.20;;;;;;4998066;28;20027;-64
2022/05/19 09:55:01;;;;;;;4.00;1.45;;;640.20;1049.60;;;;;;4982468;28;20065;-63
2022/05/19 09:57:49;;;;;;;2.28;1.40;;;615.20;998.40;;;;;;4997760;28;20040;-65
2022/05/19 10:00:25;;;;;;;3.60;1.70;;;640.10;1049.60;;;;;;4993626;28;20043;-63
2022/05/19 10:02:58;;;;;;;2.67;1.85;;;640.20;1152.00;;;;;;4998637;28;20030;-63
2022/05/19 10:05:36;;;;;;;3.55;1.80;;;640.40;1049.60;;;;;;4996551;28;20022;-63
2022/05/19 10:08:07;;;;;;;2.75;1.55;;;640.50;1024.00;;;;;;4998566;28;20027;-63
2022/05/19 10:10:55;;;;;;;2.33;1.48;;;640.40;1024.00;;;;;;4999107;28;20041;-64
2022/05/19 10:13:31;;;;;;;2.83;1.50;;;640.30;1049.60;;;;;;5000551;28;20010;-63
2022/05/19 10:16:13;;;;;;;1.95;1.40;;;640.20;1126.40;;;;;;5000908;28;20026;-63
2022/05/19 10:18:54;;;;;;;1.98;1.20;;;615.30;998.40;;;;;;5000300;28;20089;-62
2022/05/19 10:21:37;;;;;;;2.10;1.30;;;614.80;998.40;;;;;;5000647;28;20384;-63
2022/05/19 10:24:54;;;;;;;2.05;1.40;;;614.80;998.40;;;;;;4997058;28;20030;-63
2022/05/19 10:31:12;;;;;;;2.78;1.75;;;640.10;1049.60;;;;;;4936735;29;20433;-63
2022/05/19 10:33:59;;;;;;;4.93;1.30;;;615.00;1049.60;;;;;;4939773;29;20042;-60
2022/05/19 10:36:55;;;;;;;1.90;1.35;;;615.20;1126.40;;;;;;4936354;29;20024;-60
2022/05/19 10:39:41;;;;;;;2.28;1.35;;;614.90;1024.00;;;;;;4939657;29;20027;-59
2022/05/19 10:42:49;;;;;;;1.15;1.05;;;614.90;1075.20;;;;;;4937080;29;20028;-59
2022/05/19 10:45:28;;;;;;;1.92;1.27;;;615.00;1075.20;;;;;;4938809;29;20043;-59
2022/05/19 10:48:17;;;;;;;1.50;1.20;;;615.00;1075.20;;;;;;4938420;29;20054;-60
2022/05/19 10:51:06;;;;;;;2.22;1.20;;;614.70;1024.00;;;;;;4935507;29;20520;-60
2022/05/19 10:54:03;;;;;;;3.95;1.27;;;614.40;1024.00;;;;;;4937645;29;20083;-59
2022/05/19 10:56:57;;;;;;;2.65;1.40;;;589.60;1024.00;;;;;;4936415;28;20063;-60
2022/05/19 10:59:35;;;;;;;1.52;1.10;;;614.60;1100.80;;;;;;4942950;29;20027;-59
2022/05/19 11:02:22;;;;;;;1.77;1.35;;;614.60;1126.40;;;;;;4948185;29;20087;-60
2022/05/19 11:05:02;;;;;;;2.88;1.70;;;614.60;1049.60;;;;;;4945232;29;20462;-60
2022/05/19 11:07:32;;;;;;;1.23;1.02;;;589.60;998.40;;;;;;4945544;29;20063;-60
2022/05/19 11:10:23;;;;;;;1.05;0.95;;;589.70;972.80;;;;;;4949036;29;20087;-59
2022/05/19 11:13:10;;;;;;;2.20;1.27;;;614.50;972.80;;;;;;4944123;29;20140;-60
2022/05/19 11:15:44;;;;;;;1.75;1.25;;;614.40;972.80;;;;;;4945561;29;20039;-59
2022/05/19 11:18:21;;;;;;;1.25;1.10;;;614.40;972.80;;;;;;4945852;29;20039;-59
2022/05/19 11:20:58;;;;;;;3.45;1.30;;;614.70;1049.60;;;;;;4945175;29;20023;-59
2022/05/19 11:24:01;;;;;;;1.25;1.10;;;614.40;998.40;;;;;;4928451;29;20035;-57
2022/05/19 11:26:56;;;;;;;2.33;1.35;;;614.60;998.40;;;;;;4930035;29;20147;-59
2022/05/19 11:29:26;;;;;;;2.47;1.58;;;614.70;1024.00;;;;;;4929420;29;20035;-59
2022/05/19 11:32:18;;;;;;;1.25;1.15;;;614.70;998.40;;;;;;4929761;29;20089;-58
2022/05/19 11:35:12;;;;;;;1.17;1.00;;;614.50;998.40;;;;;;4928850;29;20543;-59
2022/05/19 11:37:55;;;;;;;;;;;614.70;998.40;;;;;;5008018;28;20079;-58
2022/05/19 11:40:24;;;;;;;2.45;1.30;;;614.80;1049.60;;;;;;5007972;28;19909;-59
2022/05/19 11:43:10;;;;;;;6.70;1.73;;;614.70;1024.00;;;;;;4991504;28;20018;-60
2022/05/19 11:45:45;;;;;;;1.27;1.00;;;614.80;998.40;;;;;;5007312;28;20473;-58
2022/05/19 11:57:42;;;;;;;2.13;1.30;;;589.60;947.20;;;;;;4926993;29;20529;-59
2022/05/19 12:00:11;;;;;;;1.45;1.20;;;589.70;947.20;;;;;;4927011;29;20024;-60
2022/05/19 12:02:56;;;;;;;1.70;1.30;;;589.70;947.20;;;;;;4927105;29;20549;-59
2022/05/19 12:05:50;;;;;;;2.42;1.50;;;589.50;972.80;;;;;;4925588;29;20623;-60
2022/05/19 12:08:34;;;;;;;2.28;1.30;;;589.30;972.80;;;;;;4928189;29;20246;-60
2022/05/19 12:11:14;;;;;;;1.95;1.20;;;589.60;972.80;;;;;;4926701;29;20486;-60
2022/05/19 12:13:45;;;;;;;1.35;1.20;;;589.60;921.60;;;;;;4931139;29;20084;-59
2022/05/19 12:16:15;;;;;;;1.77;1.23;;;589.50;921.60;;;;;;4931402;29;20048;-59
2022/05/19 12:19:02;;;;;;;2.25;1.42;;;589.40;921.60;;;;;;4915551;29;20762;-59
2022/05/19 12:21:38;;;;;;;2.42;1.25;;;589.50;947.20;;;;;;4931922;29;20027;-60
2022/05/19 12:24:14;;;;;;;1.58;1.10;;;589.60;947.20;;;;;;4932772;29;20069;-60
2022/05/19 12:26:51;;;;;;;2.13;1.17;;;589.70;972.80;;;;;;4950912;29;20043;-59
2022/05/19 12:29:34;;;;;;;1.55;1.30;;;614.50;1075.20;;;;;;4974376;28;20026;-59
2022/05/19 12:32:30;;;;;;;1.75;1.20;;;614.60;972.80;;;;;;4973740;28;20039;-59
2022/05/19 12:35:04;;;;;;;1.38;1.20;;;614.70;972.80;;;;;;4968572;28;20169;-59
2022/05/19 12:37:44;;;;;;;1.60;1.25;;;614.60;896.00;;;;;;4973923;28;20077;-59
2022/05/19 12:40:15;;;;;;;1.45;1.10;;;614.50;947.20;;;;;;4973873;28;20031;-60
2022/05/19 12:42:43;;;;;;;0.95;0.90;;;614.50;972.80;;;;;;4973766;28;20035;-59
2022/05/19 12:45:21;;;;;;;1.52;1.20;;;614.70;998.40;;;;;;4973526;28;20026;-60
2022/05/19 12:48:21;;;;;;;1.38;1.10;;;614.70;947.20;;;;;;4973870;28;20034;-60
2022/05/19 12:51:05;;;;;;;1.92;1.35;;;614.60;947.20;;;;;;4973814;28;20031;-60
2022/05/19 12:53:49;;;;;;;1.67;1.17;;;614.60;947.20;;;;;;4973537;28;20122;-59
2022/05/19 12:56:48;;;;;;;1.27;1.10;;;614.70;972.80;;;;;;4973829;28;20027;-59
2022/05/19 12:59:23;;;;;;;2.65;1.67;;;614.80;998.40;;;;;;4973863;28;20113;-59
2022/05/19 13:01:52;;;;;;;2.47;1.40;;;614.80;972.80;;;;;;4973669;28;20485;-59
2022/05/19 13:04:31;;;;;;;1.50;1.10;;;614.70;947.20;;;;;;4973579;28;20043;-59
2022/05/19 13:07:25;;;;;;;2.05;1.40;;;614.60;972.80;;;;;;4973459;28;20027;-58